sensor_id;sensor_type;location;lat;lon;timestamp;temperature;humidity
2202;DHT22;1107;48.654;9.250;2023-04-25T00:02:11;8.60;4.40
2202;DHT22;1107;48.654;9.250;2023-04-25T00:04:40;8.60;99.90
2202;DHT22;1107;48.654;9.250;2023-04-25T00:07:13;8.60;1.00
2202;DHT22;1107;48.654;9.250;2023-04-25T00:09:41;8.60;99.90
2202;DHT22;1107;48.654;9.250;2023-04-25T00:12:09;8.60;1.00
2202;DHT22;1107;48.654;9.250;2023-04-25T00:14:41;8.60;99.90
2202;DHT22;1107;48.654;9.250;2023-04-25T00:17:09;8.70;32.10
2202;DHT22;1107;48.654;9.250;2023-04-25T00:19:37;8.70;1.00
2202;DHT22;1107;48.654;9.250;2023-04-25T00:22:06;8.70;1.00
2202;DHT22;1107;48.654;9.250;2023-04-25T00:24:33;8.70;99.90
2202;DHT22;1107;48.654;9.250;2023-04-25T00:27:00;8.70;99.90
2202;DHT22;1107;48.654;9.250;2023-04-25T00:29:27;8.70;1.00
2202;DHT22;1107;48.654;9.250;2023-04-25T00:31:54;8.70;1.00
2202;DHT22;1107;48.654;9.250;2023-04-25T00:34:21;8.60;1.00
2202;DHT22;1107;48.654;9.250;2023-04-25T00:36:47;8.50;99.90
2202;DHT22;1107;48.654;9.250;2023-04-25T00:39:16;8.60;99.90
2202;DHT22;1107;48.654;9.250;2023-04-25T00:41:43;8.50;99.90
2202;DHT22;1107;48.654;9.250;2023-04-25T00:44:12;8.50;92.50
2202;DHT22;1107;48.654;9.250;2023-04-25T00:46:39;8.40;99.90
2202;DHT22;1107;48.654;9.250;2023-04-25T00:49:06;8.40;1.00
2202;DHT22;1107;48.654;9.250;2023-04-25T00:51:33;8.30;1.00
2202;DHT22;1107;48.654;9.250;2023-04-25T00:54:00;8.30;1.00
2202;DHT22;1107;48.654;9.250;2023-04-25T00:56:29;8.30;1.00
2202;DHT22;1107;48.654;9.250;2023-04-25T00:58:56;8.30;1.00
2202;DHT22;1107;48.654;9.250;2023-04-25T01:01:23;8.30;99.90
2202;DHT22;1107;48.654;9.250;2023-04-25T01:03:51;8.30;99.90
2202;DHT22;1107;48.654;9.250;2023-04-25T01:06:19;8.30;99.90
2202;DHT22;1107;48.654;9.250;2023-04-25T01:08:47;8.30;99.90
2202;DHT22;1107;48.654;9.250;2023-04-25T01:11:14;8.30;99.90
2202;DHT22;1107;48.654;9.250;2023-04-25T01:13:43;8.30;99.90
2202;DHT22;1107;48.654;9.250;2023-04-25T01:16:10;8.30;99.90
2202;DHT22;1107;48.654;9.250;2023-04-25T01:18:38;8.30;1.00
2202;DHT22;1107;48.654;9.250;2023-04-25T01:21:09;8.40;1.00
2202;DHT22;1107;48.654;9.250;2023-04-25T01:23:36;8.30;1.00
2202;DHT22;1107;48.654;9.250;2023-04-25T01:26:04;8.30;1.00
2202;DHT22;1107;48.654;9.250;2023-04-25T01:28:33;8.30;1.00
2202;DHT22;1107;48.654;9.250;2023-04-25T01:31:01;8.30;99.90
2202;DHT22;1107;48.654;9.250;2023-04-25T01:33:30;8.30;99.90
2202;DHT22;1107;48.654;9.250;2023-04-25T01:35:57;8.20;1.00
2202;DHT22;1107;48.654;9.250;2023-04-25T01:38:25;8.20;39.20
2202;DHT22;1107;48.654;9.250;2023-04-25T01:40:53;8.20;99.90
2202;DHT22;1107;48.654;9.250;2023-04-25T01:43:21;8.20;1.00
2202;DHT22;1107;48.654;9.250;2023-04-25T01:45:49;8.20;1.00
2202;DHT22;1107;48.654;9.250;2023-04-25T01:48:16;8.20;1.00
2202;DHT22;1107;48.654;9.250;2023-04-25T01:50:43;8.30;99.90
2202;DHT22;1107;48.654;9.250;2023-04-25T01:53:10;8.30;1.00
2202;DHT22;1107;48.654;9.250;2023-04-25T01:55:40;8.30;99.90
2202;DHT22;1107;48.654;9.250;2023-04-25T01:58:07;8.30;1.00
2202;DHT22;1107;48.654;9.250;2023-04-25T02:00:35;8.40;99.90
2202;DHT22;1107;48.654;9.250;2023-04-25T02:03:03;8.40;1.00
2202;DHT22;1107;48.654;9.250;2023-04-25T02:05:33;8.40;99.90
2202;DHT22;1107;48.654;9.250;2023-04-25T02:08:00;8.40;1.00
2202;DHT22;1107;48.654;9.250;2023-04-25T02:10:27;8.40;99.90
2202;DHT22;1107;48.654;9.250;2023-04-25T02:12:56;8.30;1.00
2202;DHT22;1107;48.654;9.250;2023-04-25T02:15:23;8.30;1.00
2202;DHT22;1107;48.654;9.250;2023-04-25T02:17:51;8.30;1.00
2202;DHT22;1107;48.654;9.250;2023-04-25T02:20:20;8.20;1.00
2202;DHT22;1107;48.654;9.250;2023-04-25T02:22:47;8.20;99.90
2202;DHT22;1107;48.654;9.250;2023-04-25T02:25:14;8.20;1.00
2202;DHT22;1107;48.654;9.250;2023-04-25T02:27:41;8.10;99.90
2202;DHT22;1107;48.654;9.250;2023-04-25T02:30:11;8.00;1.00
2202;DHT22;1107;48.654;9.250;2023-04-25T02:32:38;8.10;99.90
2202;DHT22;1107;48.654;9.250;2023-04-25T02:35:05;8.00;1.00
2202;DHT22;1107;48.654;9.250;2023-04-25T02:37:33;7.90;99.90
2202;DHT22;1107;48.654;9.250;2023-04-25T02:40:01;8.00;99.90
2202;DHT22;1107;48.654;9.250;2023-04-25T02:42:28;7.90;1.00
2202;DHT22;1107;48.654;9.250;2023-04-25T02:44:55;7.90;1.00
2202;DHT22;1107;48.654;9.250;2023-04-25T02:47:23;7.80;1.00
2202;DHT22;1107;48.654;9.250;2023-04-25T02:49:50;7.80;18.90
2202;DHT22;1107;48.654;9.250;2023-04-25T02:52:17;7.70;99.90
2202;DHT22;1107;48.654;9.250;2023-04-25T02:54:44;7.70;99.90
2202;DHT22;1107;48.654;9.250;2023-04-25T02:57:11;7.70;99.90
2202;DHT22;1107;48.654;9.250;2023-04-25T02:59:38;7.70;99.90
2202;DHT22;1107;48.654;9.250;2023-04-25T03:02:05;7.60;99.90
2202;DHT22;1107;48.654;9.250;2023-04-25T03:04:33;7.60;99.90
2202;DHT22;1107;48.654;9.250;2023-04-25T03:07:00;7.60;56.20
2202;DHT22;1107;48.654;9.250;2023-04-25T03:09:28;7.60;99.90
2202;DHT22;1107;48.654;9.250;2023-04-25T03:11:55;7.60;99.90
2202;DHT22;1107;48.654;9.250;2023-04-25T03:14:21;7.60;37.20
2202;DHT22;1107;48.654;9.250;2023-04-25T03:16:48;7.50;99.90
2202;DHT22;1107;48.654;9.250;2023-04-25T03:19:15;7.50;99.90
2202;DHT22;1107;48.654;9.250;2023-04-25T03:21:44;7.50;99.90
2202;DHT22;1107;48.654;9.250;2023-04-25T03:24:11;7.50;1.00
2202;DHT22;1107;48.654;9.250;2023-04-25T03:26:38;7.50;1.00
2202;DHT22;1107;48.654;9.250;2023-04-25T03:29:05;7.50;1.00
2202;DHT22;1107;48.654;9.250;2023-04-25T03:31:32;7.60;1.00
2202;DHT22;1107;48.654;9.250;2023-04-25T03:33:59;7.60;1.00
2202;DHT22;1107;48.654;9.250;2023-04-25T03:36:26;7.60;1.00
2202;DHT22;1107;48.654;9.250;2023-04-25T03:38:54;7.60;99.90
2202;DHT22;1107;48.654;9.250;2023-04-25T03:41:21;7.60;99.90
2202;DHT22;1107;48.654;9.250;2023-04-25T03:43:48;7.60;99.90
2202;DHT22;1107;48.654;9.250;2023-04-25T03:46:15;7.60;1.00
2202;DHT22;1107;48.654;9.250;2023-04-25T03:48:42;7.50;1.00
2202;DHT22;1107;48.654;9.250;2023-04-25T03:51:09;7.50;1.00
2202;DHT22;1107;48.654;9.250;2023-04-25T03:53:36;7.40;1.00
2202;DHT22;1107;48.654;9.250;2023-04-25T03:56:05;7.40;1.00
2202;DHT22;1107;48.654;9.250;2023-04-25T03:58:32;7.40;1.00
2202;DHT22;1107;48.654;9.250;2023-04-25T04:00:59;7.40;1.00
2202;DHT22;1107;48.654;9.250;2023-04-25T04:03:28;7.40;1.00
2202;DHT22;1107;48.654;9.250;2023-04-25T04:05:55;7.40;1.00
2202;DHT22;1107;48.654;9.250;2023-04-25T04:08:22;7.40;99.90
2202;DHT22;1107;48.654;9.250;2023-04-25T04:10:49;7.30;99.90
2202;DHT22;1107;48.654;9.250;2023-04-25T04:13:17;7.40;99.90
2202;DHT22;1107;48.654;9.250;2023-04-25T04:15:44;7.40;99.90
2202;DHT22;1107;48.654;9.250;2023-04-25T04:18:11;7.40;1.00
2202;DHT22;1107;48.654;9.250;2023-04-25T04:20:38;7.40;1.00
2202;DHT22;1107;48.654;9.250;2023-04-25T04:23:05;7.50;1.00
2202;DHT22;1107;48.654;9.250;2023-04-25T04:25:32;7.50;99.90
2202;DHT22;1107;48.654;9.250;2023-04-25T04:27:59;7.50;99.90
2202;DHT22;1107;48.654;9.250;2023-04-25T04:30:28;7.60;99.90
2202;DHT22;1107;48.654;9.250;2023-04-25T04:32:56;7.60;99.90
2202;DHT22;1107;48.654;9.250;2023-04-25T04:35:23;7.70;99.90
2202;DHT22;1107;48.654;9.250;2023-04-25T04:37:51;7.70;1.00
2202;DHT22;1107;48.654;9.250;2023-04-25T04:40:18;7.80;1.00
2202;DHT22;1107;48.654;9.250;2023-04-25T04:42:46;7.80;1.00
2202;DHT22;1107;48.654;9.250;2023-04-25T04:45:14;7.80;1.00
2202;DHT22;1107;48.654;9.250;2023-04-25T04:47:43;7.80;99.90
2202;DHT22;1107;48.654;9.250;2023-04-25T04:50:11;7.70;1.00
2202;DHT22;1107;48.654;9.250;2023-04-25T04:52:38;7.90;1.00
2202;DHT22;1107;48.654;9.250;2023-04-25T04:55:06;8.00;1.00
2202;DHT22;1107;48.654;9.250;2023-04-25T04:57:33;8.00;99.90
2202;DHT22;1107;48.654;9.250;2023-04-25T05:00:01;8.10;8.90
2202;DHT22;1107;48.654;9.250;2023-04-25T05:02:28;8.10;99.90
2202;DHT22;1107;48.654;9.250;2023-04-25T05:04:56;8.20;1.00
2202;DHT22;1107;48.654;9.250;2023-04-25T05:07:23;8.30;99.90
2202;DHT22;1107;48.654;9.250;2023-04-25T05:09:50;8.30;1.00
2202;DHT22;1107;48.654;9.250;2023-04-25T05:12:17;8.50;1.00
2202;DHT22;1107;48.654;9.250;2023-04-25T05:14:44;8.50;99.90
2202;DHT22;1107;48.654;9.250;2023-04-25T05:17:11;8.60;65.50
2202;DHT22;1107;48.654;9.250;2023-04-25T05:19:39;8.70;1.00
2202;DHT22;1107;48.654;9.250;2023-04-25T05:22:07;8.70;99.90
2202;DHT22;1107;48.654;9.250;2023-04-25T05:24:34;8.70;99.90
2202;DHT22;1107;48.654;9.250;2023-04-25T05:27:01;8.70;99.90
2202;DHT22;1107;48.654;9.250;2023-04-25T05:29:28;8.70;99.90
2202;DHT22;1107;48.654;9.250;2023-04-25T05:31:55;8.60;99.90
2202;DHT22;1107;48.654;9.250;2023-04-25T05:34:22;8.60;99.90
2202;DHT22;1107;48.654;9.250;2023-04-25T05:36:49;8.50;1.00
2202;DHT22;1107;48.654;9.250;2023-04-25T05:39:17;8.30;1.00
2202;DHT22;1107;48.654;9.250;2023-04-25T05:41:44;8.20;99.90
2202;DHT22;1107;48.654;9.250;2023-04-25T05:44:11;8.10;99.90
2202;DHT22;1107;48.654;9.250;2023-04-25T05:46:38;8.10;99.90
2202;DHT22;1107;48.654;9.250;2023-04-25T05:49:05;8.00;1.00
2202;DHT22;1107;48.654;9.250;2023-04-25T05:51:32;8.10;1.00
2202;DHT22;1107;48.654;9.250;2023-04-25T05:53:59;8.20;1.00
2202;DHT22;1107;48.654;9.250;2023-04-25T05:56:27;8.40;1.00
2202;DHT22;1107;48.654;9.250;2023-04-25T05:58:54;8.60;1.00
2202;DHT22;1107;48.654;9.250;2023-04-25T06:01:22;8.80;99.90
2202;DHT22;1107;48.654;9.250;2023-04-25T06:03:49;8.90;99.90
2202;DHT22;1107;48.654;9.250;2023-04-25T06:06:17;9.00;1.00
2202;DHT22;1107;48.654;9.250;2023-04-25T06:08:44;9.00;19.00
2202;DHT22;1107;48.654;9.250;2023-04-25T06:11:10;9.00;1.00
2202;DHT22;1107;48.654;9.250;2023-04-25T06:13:39;9.20;99.90
2202;DHT22;1107;48.654;9.250;2023-04-25T06:16:06;9.50;91.50
2202;DHT22;1107;48.654;9.250;2023-04-25T06:18:33;9.70;99.90
2202;DHT22;1107;48.654;9.250;2023-04-25T06:21:00;10.00;99.90
2202;DHT22;1107;48.654;9.250;2023-04-25T06:23:28;10.30;1.00
2202;DHT22;1107;48.654;9.250;2023-04-25T06:25:55;10.60;1.00
2202;DHT22;1107;48.654;9.250;2023-04-25T06:28:22;11.00;1.00
2202;DHT22;1107;48.654;9.250;2023-04-25T06:30:51;11.10;45.80
2202;DHT22;1107;48.654;9.250;2023-04-25T06:33:18;11.40;1.00
2202;DHT22;1107;48.654;9.250;2023-04-25T06:35:45;11.50;1.00
2202;DHT22;1107;48.654;9.250;2023-04-25T06:38:12;11.60;1.00
2202;DHT22;1107;48.654;9.250;2023-04-25T06:40:39;11.50;1.00
2202;DHT22;1107;48.654;9.250;2023-04-25T06:43:06;11.30;1.00
2202;DHT22;1107;48.654;9.250;2023-04-25T06:45:33;11.00;1.00
2202;DHT22;1107;48.654;9.250;2023-04-25T06:48:01;10.80;1.00
2202;DHT22;1107;48.654;9.250;2023-04-25T06:50:28;10.60;1.00
2202;DHT22;1107;48.654;9.250;2023-04-25T06:52:55;10.40;1.00
2202;DHT22;1107;48.654;9.250;2023-04-25T06:55:22;10.30;1.00
2202;DHT22;1107;48.654;9.250;2023-04-25T06:57:49;10.20;99.90
2202;DHT22;1107;48.654;9.250;2023-04-25T07:00:16;10.10;99.90
2202;DHT22;1107;48.654;9.250;2023-04-25T07:02:44;10.00;99.90
2202;DHT22;1107;48.654;9.250;2023-04-25T07:05:12;10.00;99.90
2202;DHT22;1107;48.654;9.250;2023-04-25T07:07:39;9.90;99.90
2202;DHT22;1107;48.654;9.250;2023-04-25T07:10:06;9.80;1.00
2202;DHT22;1107;48.654;9.250;2023-04-25T07:12:33;9.80;80.50
2202;DHT22;1107;48.654;9.250;2023-04-25T07:15:00;9.70;1.00
2202;DHT22;1107;48.654;9.250;2023-04-25T07:17:32;9.60;1.00
2202;DHT22;1107;48.654;9.250;2023-04-25T07:19:59;9.50;24.10
2202;DHT22;1107;48.654;9.250;2023-04-25T07:22:27;9.50;99.90
2202;DHT22;1107;48.654;9.250;2023-04-25T07:24:54;9.50;99.90
2202;DHT22;1107;48.654;9.250;2023-04-25T07:27:21;9.50;1.00
2202;DHT22;1107;48.654;9.250;2023-04-25T07:29:48;9.50;1.00
2202;DHT22;1107;48.654;9.250;2023-04-25T07:32:15;9.50;99.90
2202;DHT22;1107;48.654;9.250;2023-04-25T07:34:42;9.50;1.00
2202;DHT22;1107;48.654;9.250;2023-04-25T07:37:09;9.50;99.90
2202;DHT22;1107;48.654;9.250;2023-04-25T07:39:37;9.30;1.00
2202;DHT22;1107;48.654;9.250;2023-04-25T07:42:05;9.30;1.00
2202;DHT22;1107;48.654;9.250;2023-04-25T07:44:33;9.20;99.90
2202;DHT22;1107;48.654;9.250;2023-04-25T07:47:04;9.20;1.00
2202;DHT22;1107;48.654;9.250;2023-04-25T07:49:32;9.20;1.00
2202;DHT22;1107;48.654;9.250;2023-04-25T07:52:00;9.10;72.20
2202;DHT22;1107;48.654;9.250;2023-04-25T07:54:27;9.00;1.00
2202;DHT22;1107;48.654;9.250;2023-04-25T07:56:55;9.00;1.00
2202;DHT22;1107;48.654;9.250;2023-04-25T07:59:22;9.00;16.50
2202;DHT22;1107;48.654;9.250;2023-04-25T08:01:50;9.00;99.90
2202;DHT22;1107;48.654;9.250;2023-04-25T08:04:17;8.90;1.00
2202;DHT22;1107;48.654;9.250;2023-04-25T08:06:43;8.90;99.90
2202;DHT22;1107;48.654;9.250;2023-04-25T08:09:11;9.00;1.00
2202;DHT22;1107;48.654;9.250;2023-04-25T08:11:38;9.00;99.90
2202;DHT22;1107;48.654;9.250;2023-04-25T08:14:06;9.00;99.90
2202;DHT22;1107;48.654;9.250;2023-04-25T08:16:34;9.10;99.90
2202;DHT22;1107;48.654;9.250;2023-04-25T08:19:00;9.10;1.00
2202;DHT22;1107;48.654;9.250;2023-04-25T08:21:27;9.20;99.90
2202;DHT22;1107;48.654;9.250;2023-04-25T08:23:55;9.10;1.00
2202;DHT22;1107;48.654;9.250;2023-04-25T08:26:22;9.20;99.90
2202;DHT22;1107;48.654;9.250;2023-04-25T08:28:50;9.10;1.00
2202;DHT22;1107;48.654;9.250;2023-04-25T08:31:19;9.20;99.90
2202;DHT22;1107;48.654;9.250;2023-04-25T08:33:46;9.20;1.00
2202;DHT22;1107;48.654;9.250;2023-04-25T08:36:13;9.30;1.00
2202;DHT22;1107;48.654;9.250;2023-04-25T08:38:40;9.30;99.90
2202;DHT22;1107;48.654;9.250;2023-04-25T08:41:07;9.30;99.90
2202;DHT22;1107;48.654;9.250;2023-04-25T08:43:35;9.30;1.00
2202;DHT22;1107;48.654;9.250;2023-04-25T08:46:02;9.30;1.00
2202;DHT22;1107;48.654;9.250;2023-04-25T08:48:32;9.30;26.70
2202;DHT22;1107;48.654;9.250;2023-04-25T08:51:02;9.30;1.00
2202;DHT22;1107;48.654;9.250;2023-04-25T08:53:30;9.30;99.90
2202;DHT22;1107;48.654;9.250;2023-04-25T08:55:59;9.40;99.90
2202;DHT22;1107;48.654;9.250;2023-04-25T08:58:27;9.40;1.00
2202;DHT22;1107;48.654;9.250;2023-04-25T09:00:54;9.40;1.00
2202;DHT22;1107;48.654;9.250;2023-04-25T09:03:21;9.10;99.90
2202;DHT22;1107;48.654;9.250;2023-04-25T09:05:51;8.90;99.90
2202;DHT22;1107;48.654;9.250;2023-04-25T09:08:18;8.70;99.90
2202;DHT22;1107;48.654;9.250;2023-04-25T09:10:45;8.70;1.00
2202;DHT22;1107;48.654;9.250;2023-04-25T09:13:13;8.60;99.90
2202;DHT22;1107;48.654;9.250;2023-04-25T09:15:48;8.50;1.00
2202;DHT22;1107;48.654;9.250;2023-04-25T09:18:22;8.30;99.90
2202;DHT22;1107;48.654;9.250;2023-04-25T09:20:52;8.30;99.90
2202;DHT22;1107;48.654;9.250;2023-04-25T09:23:20;8.20;1.00
2202;DHT22;1107;48.654;9.250;2023-04-25T09:25:48;8.30;99.90
2202;DHT22;1107;48.654;9.250;2023-04-25T09:28:16;8.20;1.00
2202;DHT22;1107;48.654;9.250;2023-04-25T09:30:43;8.20;99.90
2202;DHT22;1107;48.654;9.250;2023-04-25T09:33:12;8.10;1.00
2202;DHT22;1107;48.654;9.250;2023-04-25T09:35:41;8.00;99.90
2202;DHT22;1107;48.654;9.250;2023-04-25T09:38:11;8.00;1.00
2202;DHT22;1107;48.654;9.250;2023-04-25T09:40:42;8.00;99.90
2202;DHT22;1107;48.654;9.250;2023-04-25T09:43:10;8.00;1.00
2202;DHT22;1107;48.654;9.250;2023-04-25T09:45:41;8.00;1.00
2202;DHT22;1107;48.654;9.250;2023-04-25T09:48:11;8.00;1.00
2202;DHT22;1107;48.654;9.250;2023-04-25T09:50:38;8.00;1.00
2202;DHT22;1107;48.654;9.250;2023-04-25T09:53:06;7.90;1.00
2202;DHT22;1107;48.654;9.250;2023-04-25T09:55:35;7.70;1.00
2202;DHT22;1107;48.654;9.250;2023-04-25T09:58:05;7.70;1.00
2202;DHT22;1107;48.654;9.250;2023-04-25T10:00:34;7.80;99.90
2202;DHT22;1107;48.654;9.250;2023-04-25T10:03:01;7.90;99.90
2202;DHT22;1107;48.654;9.250;2023-04-25T10:05:32;7.90;99.90
2202;DHT22;1107;48.654;9.250;2023-04-25T10:08:02;7.70;99.90
2202;DHT22;1107;48.654;9.250;2023-04-25T10:10:30;7.60;99.90
2202;DHT22;1107;48.654;9.250;2023-04-25T10:13:04;7.70;99.90
2202;DHT22;1107;48.654;9.250;2023-04-25T10:15:34;7.70;99.90
2202;DHT22;1107;48.654;9.250;2023-04-25T10:18:02;7.70;99.90
2202;DHT22;1107;48.654;9.250;2023-04-25T10:20:29;7.70;99.90
2202;DHT22;1107;48.654;9.250;2023-04-25T10:23:02;7.70;99.90
2202;DHT22;1107;48.654;9.250;2023-04-25T10:25:30;7.60;99.90
2202;DHT22;1107;48.654;9.250;2023-04-25T10:27:59;7.60;99.90
2202;DHT22;1107;48.654;9.250;2023-04-25T10:30:28;7.50;99.90
2202;DHT22;1107;48.654;9.250;2023-04-25T10:32:56;7.70;99.90
2202;DHT22;1107;48.654;9.250;2023-04-25T10:35:25;7.60;99.90
2202;DHT22;1107;48.654;9.250;2023-04-25T10:38:00;7.60;99.90
2202;DHT22;1107;48.654;9.250;2023-04-25T10:40:29;7.60;99.90
2202;DHT22;1107;48.654;9.250;2023-04-25T10:46:00;7.50;99.90
2202;DHT22;1107;48.654;9.250;2023-04-25T10:48:28;7.60;99.90
2202;DHT22;1107;48.654;9.250;2023-04-25T10:51:07;7.70;99.90
2202;DHT22;1107;48.654;9.250;2023-04-25T10:53:35;7.80;99.90
2202;DHT22;1107;48.654;9.250;2023-04-25T10:56:09;7.70;99.90
2202;DHT22;1107;48.654;9.250;2023-04-25T10:58:42;7.80;99.90
2202;DHT22;1107;48.654;9.250;2023-04-25T11:01:11;7.60;99.90
2202;DHT22;1107;48.654;9.250;2023-04-25T11:03:40;7.80;99.90
2202;DHT22;1107;48.654;9.250;2023-04-25T11:06:18;7.70;99.90
2202;DHT22;1107;48.654;9.250;2023-04-25T11:08:48;7.70;99.90
2202;DHT22;1107;48.654;9.250;2023-04-25T11:11:17;7.80;99.90
2202;DHT22;1107;48.654;9.250;2023-04-25T11:13:47;7.80;99.90
2202;DHT22;1107;48.654;9.250;2023-04-25T11:16:16;7.80;99.90
2202;DHT22;1107;48.654;9.250;2023-04-25T11:18:43;8.00;99.90
2202;DHT22;1107;48.654;9.250;2023-04-25T11:21:10;8.20;99.90
2202;DHT22;1107;48.654;9.250;2023-04-25T11:23:37;8.10;99.90
2202;DHT22;1107;48.654;9.250;2023-04-25T11:26:04;8.20;99.90
2202;DHT22;1107;48.654;9.250;2023-04-25T11:28:31;8.20;99.90
2202;DHT22;1107;48.654;9.250;2023-04-25T11:30:58;8.20;99.90
2202;DHT22;1107;48.654;9.250;2023-04-25T11:33:27;8.20;99.90
2202;DHT22;1107;48.654;9.250;2023-04-25T11:35:54;8.10;99.90
2202;DHT22;1107;48.654;9.250;2023-04-25T11:38:22;8.10;99.90
2202;DHT22;1107;48.654;9.250;2023-04-25T11:40:50;8.10;99.90
2202;DHT22;1107;48.654;9.250;2023-04-25T11:43:19;8.10;99.90
2202;DHT22;1107;48.654;9.250;2023-04-25T11:45:47;8.10;99.90
2202;DHT22;1107;48.654;9.250;2023-04-25T11:48:15;8.10;99.90
2202;DHT22;1107;48.654;9.250;2023-04-25T11:50:43;8.10;99.90
2202;DHT22;1107;48.654;9.250;2023-04-25T11:53:10;8.20;99.90
2202;DHT22;1107;48.654;9.250;2023-04-25T11:55:38;8.30;99.90
2202;DHT22;1107;48.654;9.250;2023-04-25T11:58:05;8.50;99.90
2202;DHT22;1107;48.654;9.250;2023-04-25T12:00:34;8.80;99.90
2202;DHT22;1107;48.654;9.250;2023-04-25T12:03:01;9.10;99.90
2202;DHT22;1107;48.654;9.250;2023-04-25T12:05:30;9.40;99.90
2202;DHT22;1107;48.654;9.250;2023-04-25T12:08:09;9.70;99.90
2202;DHT22;1107;48.654;9.250;2023-04-25T12:10:37;9.90;99.90
2202;DHT22;1107;48.654;9.250;2023-04-25T12:13:19;10.10;99.90
2202;DHT22;1107;48.654;9.250;2023-04-25T12:15:46;10.10;99.90
2202;DHT22;1107;48.654;9.250;2023-04-25T12:18:13;9.90;99.90
2202;DHT22;1107;48.654;9.250;2023-04-25T12:20:41;10.00;99.90
2202;DHT22;1107;48.654;9.250;2023-04-25T12:23:09;10.10;99.90
2202;DHT22;1107;48.654;9.250;2023-04-25T12:25:39;10.30;99.90
2202;DHT22;1107;48.654;9.250;2023-04-25T12:28:14;10.40;99.90
2202;DHT22;1107;48.654;9.250;2023-04-25T12:30:58;10.40;99.90
2202;DHT22;1107;48.654;9.250;2023-04-25T12:33:27;10.30;99.90
2202;DHT22;1107;48.654;9.250;2023-04-25T12:35:54;10.20;99.90
2202;DHT22;1107;48.654;9.250;2023-04-25T12:38:24;10.10;99.90
2202;DHT22;1107;48.654;9.250;2023-04-25T12:40:51;10.00;99.90
2202;DHT22;1107;48.654;9.250;2023-04-25T12:43:18;9.80;99.90
2202;DHT22;1107;48.654;9.250;2023-04-25T12:45:47;9.80;99.90
2202;DHT22;1107;48.654;9.250;2023-04-25T12:48:14;9.70;99.90
2202;DHT22;1107;48.654;9.250;2023-04-25T12:50:40;9.60;99.90
2202;DHT22;1107;48.654;9.250;2023-04-25T12:53:07;9.70;99.90
2202;DHT22;1107;48.654;9.250;2023-04-25T12:55:36;9.80;99.90
2202;DHT22;1107;48.654;9.250;2023-04-25T12:58:03;10.10;99.90
2202;DHT22;1107;48.654;9.250;2023-04-25T13:00:30;10.40;99.90
2202;DHT22;1107;48.654;9.250;2023-04-25T13:02:57;10.60;99.90
2202;DHT22;1107;48.654;9.250;2023-04-25T13:05:25;10.80;99.90
2202;DHT22;1107;48.654;9.250;2023-04-25T13:07:51;10.80;99.90
2202;DHT22;1107;48.654;9.250;2023-04-25T13:10:19;11.20;99.90
2202;DHT22;1107;48.654;9.250;2023-04-25T13:12:47;11.50;99.90
2202;DHT22;1107;48.654;9.250;2023-04-25T13:15:14;11.70;99.90
2202;DHT22;1107;48.654;9.250;2023-04-25T13:17:42;12.00;99.90
2202;DHT22;1107;48.654;9.250;2023-04-25T13:20:09;12.30;99.90
2202;DHT22;1107;48.654;9.250;2023-04-25T13:22:37;12.50;99.90
2202;DHT22;1107;48.654;9.250;2023-04-25T13:25:06;12.70;99.90
2202;DHT22;1107;48.654;9.250;2023-04-25T13:27:34;12.60;99.90
2202;DHT22;1107;48.654;9.250;2023-04-25T13:30:04;12.50;1.00
2202;DHT22;1107;48.654;9.250;2023-04-25T13:32:33;12.30;1.00
2202;DHT22;1107;48.654;9.250;2023-04-25T13:35:01;12.20;1.00
2202;DHT22;1107;48.654;9.250;2023-04-25T13:37:29;12.30;21.60
2202;DHT22;1107;48.654;9.250;2023-04-25T13:39:59;12.20;1.00
2202;DHT22;1107;48.654;9.250;2023-04-25T13:42:26;12.20;44.40
2202;DHT22;1107;48.654;9.250;2023-04-25T13:44:53;12.30;99.90
2202;DHT22;1107;48.654;9.250;2023-04-25T13:47:22;12.50;95.70
2202;DHT22;1107;48.654;9.250;2023-04-25T13:49:49;12.30;1.00
2202;DHT22;1107;48.654;9.250;2023-04-25T13:52:16;12.50;1.00
2202;DHT22;1107;48.654;9.250;2023-04-25T13:54:43;12.60;1.00
2202;DHT22;1107;48.654;9.250;2023-04-25T13:57:10;13.00;1.00
2202;DHT22;1107;48.654;9.250;2023-04-25T13:59:37;13.50;1.00
2202;DHT22;1107;48.654;9.250;2023-04-25T14:02:04;13.70;1.00
2202;DHT22;1107;48.654;9.250;2023-04-25T14:04:32;13.80;1.00
2202;DHT22;1107;48.654;9.250;2023-04-25T14:07:00;13.70;1.00
2202;DHT22;1107;48.654;9.250;2023-04-25T14:09:27;13.60;1.00
2202;DHT22;1107;48.654;9.250;2023-04-25T14:11:55;13.30;1.00
2202;DHT22;1107;48.654;9.250;2023-04-25T14:14:22;13.10;1.00
2202;DHT22;1107;48.654;9.250;2023-04-25T14:16:50;12.90;1.00
2202;DHT22;1107;48.654;9.250;2023-04-25T14:19:19;12.80;1.00
2202;DHT22;1107;48.654;9.250;2023-04-25T14:21:48;12.70;1.00
2202;DHT22;1107;48.654;9.250;2023-04-25T14:24:15;12.60;1.00
2202;DHT22;1107;48.654;9.250;2023-04-25T14:26:43;12.50;1.00
2202;DHT22;1107;48.654;9.250;2023-04-25T14:29:10;12.60;1.00
2202;DHT22;1107;48.654;9.250;2023-04-25T14:31:38;12.70;1.00
2202;DHT22;1107;48.654;9.250;2023-04-25T14:34:05;12.70;1.00
2202;DHT22;1107;48.654;9.250;2023-04-25T14:36:33;12.70;1.00
2202;DHT22;1107;48.654;9.250;2023-04-25T14:39:02;13.00;1.00
2202;DHT22;1107;48.654;9.250;2023-04-25T14:41:30;13.10;1.00
2202;DHT22;1107;48.654;9.250;2023-04-25T14:43:57;13.20;1.00
2202;DHT22;1107;48.654;9.250;2023-04-25T14:46:24;13.20;1.00
2202;DHT22;1107;48.654;9.250;2023-04-25T14:48:51;13.10;1.00
2202;DHT22;1107;48.654;9.250;2023-04-25T14:51:18;12.80;1.00
2202;DHT22;1107;48.654;9.250;2023-04-25T14:53:45;12.60;1.00
2202;DHT22;1107;48.654;9.250;2023-04-25T14:56:13;12.50;1.00
2202;DHT22;1107;48.654;9.250;2023-04-25T14:58:40;12.40;1.00
2202;DHT22;1107;48.654;9.250;2023-04-25T15:01:07;12.40;1.00
2202;DHT22;1107;48.654;9.250;2023-04-25T15:03:34;12.40;1.00
2202;DHT22;1107;48.654;9.250;2023-04-25T15:06:01;12.50;1.00
2202;DHT22;1107;48.654;9.250;2023-04-25T15:08:28;12.80;1.00
2202;DHT22;1107;48.654;9.250;2023-04-25T15:10:55;13.10;1.00
2202;DHT22;1107;48.654;9.250;2023-04-25T15:13:24;13.10;1.00
2202;DHT22;1107;48.654;9.250;2023-04-25T15:15:51;13.10;1.00
2202;DHT22;1107;48.654;9.250;2023-04-25T15:18:20;12.90;1.00
2202;DHT22;1107;48.654;9.250;2023-04-25T15:20:49;12.50;1.00
2202;DHT22;1107;48.654;9.250;2023-04-25T15:23:17;12.90;1.00
2202;DHT22;1107;48.654;9.250;2023-04-25T15:25:44;13.30;1.00
2202;DHT22;1107;48.654;9.250;2023-04-25T15:28:11;13.50;1.00
2202;DHT22;1107;48.654;9.250;2023-04-25T15:30:43;13.70;1.00
2202;DHT22;1107;48.654;9.250;2023-04-25T15:33:10;13.80;1.00
2202;DHT22;1107;48.654;9.250;2023-04-25T15:35:37;14.00;1.00
2202;DHT22;1107;48.654;9.250;2023-04-25T15:38:04;14.30;1.00
2202;DHT22;1107;48.654;9.250;2023-04-25T15:40:31;13.90;1.00
2202;DHT22;1107;48.654;9.250;2023-04-25T15:42:58;13.40;1.00
2202;DHT22;1107;48.654;9.250;2023-04-25T15:45:25;13.20;1.00
2202;DHT22;1107;48.654;9.250;2023-04-25T15:47:55;13.10;1.00
2202;DHT22;1107;48.654;9.250;2023-04-25T15:50:22;13.00;1.00
2202;DHT22;1107;48.654;9.250;2023-04-25T15:52:50;12.80;1.00
2202;DHT22;1107;48.654;9.250;2023-04-25T15:55:18;12.50;1.00
2202;DHT22;1107;48.654;9.250;2023-04-25T15:57:46;12.40;1.00
2202;DHT22;1107;48.654;9.250;2023-04-25T16:00:13;12.30;1.00
2202;DHT22;1107;48.654;9.250;2023-04-25T16:02:43;12.20;1.00
2202;DHT22;1107;48.654;9.250;2023-04-25T16:05:11;12.20;1.00
2202;DHT22;1107;48.654;9.250;2023-04-25T16:07:39;12.10;1.00
2202;DHT22;1107;48.654;9.250;2023-04-25T16:10:07;12.10;1.00
2202;DHT22;1107;48.654;9.250;2023-04-25T16:12:35;12.10;1.00
2202;DHT22;1107;48.654;9.250;2023-04-25T16:15:03;12.10;1.00
2202;DHT22;1107;48.654;9.250;2023-04-25T16:17:30;11.90;1.00
2202;DHT22;1107;48.654;9.250;2023-04-25T16:19:58;11.80;1.00
2202;DHT22;1107;48.654;9.250;2023-04-25T16:22:27;11.80;1.00
2202;DHT22;1107;48.654;9.250;2023-04-25T16:24:54;11.80;1.00
2202;DHT22;1107;48.654;9.250;2023-04-25T16:27:21;11.70;1.00
2202;DHT22;1107;48.654;9.250;2023-04-25T16:29:48;11.70;1.00